Terminal Aerodrome Forecast
Issued by NWS Sterling, VA

Home | Current Version | Previous Version | Text Only | Print | Product List | Glossary On
Versions: 1 2 3 4 5 6 7 8 9 10 11 12 13 14 15 16 17 18 19 20
000
FTUS41 KLWX 210537
TAFDCA
TAF
KDCA 210537Z 2106/2206 26004KT P6SM SCT250
     FM211200 30005KT P6SM FEW250
     FM211800 28006KT P6SM BKN050
     FM212200 29006KT P6SM SCT050=

USA.gov is the U.S. government's official web portal to all federal, state and local government web resources and services.